createdAt,value
2023-04-25T00:02:58.545Z,86.20
2023-04-25T00:09:00.880Z,87.04
2023-04-25T00:15:02.943Z,87.23
2023-04-25T00:21:07.191Z,87.57
2023-04-25T00:27:09.091Z,87.72
2023-04-25T00:33:11.294Z,87.73
2023-04-25T00:39:14.421Z,87.89
2023-04-25T00:45:18.075Z,88.12
2023-04-25T00:51:22.675Z,87.41
2023-04-25T00:57:24.641Z,87.33
2023-04-25T01:03:29.788Z,86.60
2023-04-25T01:09:33.030Z,86.63
2023-04-25T01:15:36.771Z,86.65
2023-04-25T01:21:38.729Z,85.75
2023-04-25T01:27:41.734Z,85.72
2023-04-25T01:33:43.668Z,86.55
2023-04-25T01:39:45.919Z,87.01
2023-04-25T01:45:49.000Z,87.83
2023-04-25T01:51:54.364Z,88.12
2023-04-25T01:57:56.275Z,88.03
2023-04-25T02:03:58.399Z,88.27
2023-04-25T02:10:00.664Z,87.47
2023-04-25T02:16:02.925Z,88.04
2023-04-25T02:22:04.984Z,87.86
2023-04-25T02:28:06.876Z,87.46
2023-04-25T02:34:08.871Z,87.45
2023-04-25T02:40:11.411Z,87.60
2023-04-25T02:46:13.313Z,87.67
2023-04-25T02:52:15.409Z,87.29
2023-04-25T02:58:17.308Z,87.12
2023-04-25T03:04:20.336Z,87.07
2023-04-25T03:10:22.290Z,87.46
2023-04-25T03:16:25.029Z,87.59
2023-04-25T03:22:26.973Z,87.13
2023-04-25T03:28:29.227Z,86.21
2023-04-25T03:34:31.603Z,87.26
2023-04-25T03:40:33.572Z,87.69
2023-04-25T03:46:35.495Z,89.27
2023-04-25T03:52:37.420Z,90.46
2023-04-25T03:58:39.336Z,92.27
2023-04-25T04:04:41.664Z,93.33
2023-04-25T04:10:43.702Z,93.53
2023-04-25T04:16:45.993Z,93.47
2023-04-25T04:22:48.180Z,94.43
2023-04-25T04:28:55.342Z,95.51
2023-04-25T04:34:57.442Z,97.11
2023-04-25T04:40:59.331Z,98.41
2023-04-25T04:47:01.441Z,98.96
2023-04-25T04:53:05.209Z,100.00
2023-04-25T04:59:08.055Z,99.24
2023-04-25T05:05:10.073Z,98.88
2023-04-25T05:11:12.373Z,97.47
2023-04-25T05:17:14.304Z,98.19
2023-04-25T05:23:16.435Z,98.53
2023-04-25T05:29:18.318Z,98.04
2023-04-25T05:35:20.264Z,96.84
2023-04-25T05:41:22.176Z,96.12
2023-04-25T05:47:24.109Z,96.26
2023-04-25T05:53:25.993Z,95.49
2023-04-25T05:59:27.899Z,93.37
2023-04-25T06:05:30.325Z,92.93
2023-04-25T06:11:32.347Z,92.39
2023-04-25T06:17:34.704Z,90.66
2023-04-25T06:23:36.620Z,88.33
2023-04-25T06:29:38.544Z,88.01
2023-04-25T06:35:40.489Z,84.80
2023-04-25T06:41:42.368Z,84.62
2023-04-25T06:47:44.277Z,81.96
2023-04-25T06:53:46.255Z,83.68
2023-04-25T06:59:48.144Z,82.96
2023-04-25T07:05:50.180Z,85.62
2023-04-25T07:11:52.129Z,84.74
2023-04-25T07:17:54.056Z,84.96
2023-04-25T07:23:56.001Z,84.88
2023-04-25T07:29:58.613Z,84.79
2023-04-25T07:36:00.824Z,82.56
2023-04-25T07:42:03.334Z,81.51
2023-04-25T07:48:05.497Z,80.98
2023-04-25T07:54:07.887Z,77.58
2023-04-25T08:00:10.574Z,75.18
2023-04-25T08:06:12.695Z,71.07
2023-04-25T08:12:14.972Z,71.04
2023-04-25T08:18:17.726Z,69.02
2023-04-25T08:24:19.879Z,68.46
2023-04-25T08:30:22.094Z,68.29
2023-04-25T08:42:36.237Z,65.24
2023-04-25T08:48:38.376Z,61.88
2023-04-25T08:54:48.281Z,61.11
2023-04-25T09:00:51.991Z,65.90
2023-04-25T09:06:53.914Z,66.62
2023-04-25T09:13:21.644Z,66.57
2023-04-25T09:19:38.926Z,66.03
2023-04-25T09:25:43.985Z,65.10
2023-04-25T09:31:45.889Z,62.74
2023-04-25T09:37:47.830Z,61.62
2023-04-25T09:43:51.463Z,59.98
2023-04-25T09:49:56.006Z,64.12
2023-04-25T09:56:00.762Z,64.76
2023-04-25T10:02:03.688Z,61.41
2023-04-25T10:08:07.626Z,60.53
2023-04-25T10:14:10.769Z,57.91
2023-04-25T10:20:13.966Z,56.86
2023-04-25T10:26:17.270Z,54.14
2023-04-25T10:32:19.481Z,54.80
2023-04-25T10:38:21.558Z,59.07
2023-04-25T10:44:23.609Z,61.51
2023-04-25T10:50:40.716Z,60.64
2023-04-25T10:56:45.552Z,58.95
2023-04-25T11:02:54.221Z,59.05
2023-04-25T11:08:56.314Z,56.99
2023-04-25T11:15:06.903Z,57.35
2023-04-25T11:21:09.110Z,57.79
2023-04-25T11:27:11.120Z,59.20
2023-04-25T11:33:13.045Z,59.90
2023-04-25T11:39:16.240Z,61.49
2023-04-25T11:45:19.713Z,62.81
2023-04-25T11:51:21.828Z,59.18
2023-04-25T11:57:23.748Z,59.66
2023-04-25T12:03:28.323Z,61.06
2023-04-25T12:09:34.835Z,61.16
2023-04-25T12:15:37.497Z,61.16
2023-04-25T12:21:50.508Z,58.44
2023-04-25T12:28:24.935Z,48.27
2023-04-25T12:34:26.937Z,44.81
2023-04-25T12:40:28.816Z,44.92
2023-04-25T12:46:30.890Z,45.22
2023-04-25T12:52:32.825Z,48.73
2023-04-25T12:58:35.223Z,53.23
2023-04-25T13:04:37.312Z,56.02
2023-04-25T13:10:40.386Z,58.53
2023-04-25T13:16:42.576Z,58.20
2023-04-25T13:22:46.623Z,59.29
2023-04-25T13:28:48.554Z,58.28
2023-04-25T13:34:51.750Z,58.05
2023-04-25T13:40:54.321Z,54.96
2023-04-25T13:46:56.373Z,44.53
2023-04-25T13:52:58.306Z,42.78
2023-04-25T13:59:00.211Z,42.79
2023-04-25T14:05:04.358Z,38.91
2023-04-25T14:11:06.552Z,39.64
2023-04-25T14:17:09.753Z,40.46
2023-04-25T14:23:11.688Z,37.36
2023-04-25T14:29:13.990Z,36.99
2023-04-25T14:35:16.045Z,39.01
2023-04-25T14:41:18.013Z,39.46
2023-04-25T14:47:19.929Z,42.77
2023-04-25T14:53:21.806Z,47.11
2023-04-25T14:59:24.329Z,49.41
2023-04-25T15:05:26.539Z,48.14
2023-04-25T15:11:28.619Z,46.27
2023-04-25T15:17:32.114Z,42.16
2023-04-25T15:23:34.123Z,45.19
2023-04-25T15:29:36.755Z,47.64
2023-04-25T15:35:38.696Z,50.62
2023-04-25T15:41:40.647Z,54.43
2023-04-25T15:47:43.044Z,60.86
2023-04-25T15:53:44.970Z,62.50
2023-04-25T15:59:49.020Z,64.62
2023-04-25T16:05:51.092Z,62.04
2023-04-25T16:11:53.258Z,62.76
2023-04-25T16:17:55.217Z,63.75
2023-04-25T16:23:57.160Z,64.24
2023-04-25T16:29:59.105Z,61.37
2023-04-25T16:36:01.013Z,52.76
2023-04-25T16:42:04.927Z,47.96
2023-04-25T16:48:07.153Z,44.25
2023-04-25T16:54:09.176Z,46.43
2023-04-25T17:00:12.990Z,53.30
2023-04-25T17:06:15.026Z,57.23
2023-04-25T17:12:19.550Z,59.04
2023-04-25T17:18:24.479Z,61.73
2023-04-25T17:24:26.591Z,63.26
2023-04-25T17:30:28.479Z,66.22
2023-04-25T17:36:30.810Z,61.82
2023-04-25T17:42:32.752Z,60.23
2023-04-25T17:48:34.672Z,60.66
2023-04-25T17:54:36.595Z,58.15
2023-04-25T18:00:39.123Z,57.99
2023-04-25T18:06:41.414Z,60.11
2023-04-25T18:12:43.353Z,61.58
2023-04-25T18:18:52.825Z,64.45
2023-04-25T18:24:55.221Z,65.25
2023-04-25T18:30:57.979Z,67.10
2023-04-25T18:36:59.897Z,67.99
2023-04-25T18:43:01.792Z,67.00
2023-04-25T18:49:04.043Z,69.44
2023-04-25T18:55:06.560Z,68.69
2023-04-25T19:01:09.003Z,68.79
2023-04-25T19:07:11.217Z,67.10
2023-04-25T19:13:13.906Z,68.02
2023-04-25T19:19:15.776Z,68.44
2023-04-25T19:25:17.766Z,68.87
2023-04-25T19:31:19.934Z,68.96
2023-04-25T19:37:21.930Z,67.77
2023-04-25T19:43:23.878Z,68.32
2023-04-25T19:49:27.107Z,68.77
2023-04-25T19:55:29.128Z,69.26
2023-04-25T20:01:31.185Z,69.68
2023-04-25T20:07:33.362Z,70.24
2023-04-25T20:13:35.257Z,70.23
2023-04-25T20:19:38.215Z,70.72
2023-04-25T20:25:40.549Z,71.20
2023-04-25T20:31:42.617Z,73.03
2023-04-25T20:37:44.714Z,73.70
2023-04-25T20:43:47.313Z,73.67
2023-04-25T20:49:49.917Z,75.34
2023-04-25T20:55:52.271Z,75.63
2023-04-25T21:01:54.753Z,76.17
2023-04-25T21:07:57.545Z,76.39
2023-04-25T21:13:59.456Z,75.81
2023-04-25T21:20:01.350Z,76.64
2023-04-25T21:26:03.303Z,77.13
2023-04-25T21:32:06.238Z,77.68
2023-04-25T21:38:08.154Z,78.10
2023-04-25T21:44:12.478Z,78.54
2023-04-25T21:50:15.214Z,79.06
2023-04-25T21:56:17.101Z,79.07
2023-04-25T22:02:19.340Z,79.04
2023-04-25T22:08:21.877Z,80.40
2023-04-25T22:14:25.114Z,81.22
2023-04-25T22:20:27.976Z,81.17
2023-04-25T22:26:30.205Z,81.56
2023-04-25T22:32:32.183Z,81.12
2023-04-25T22:38:34.121Z,81.38
2023-04-25T22:44:36.666Z,81.83
2023-04-25T22:50:40.576Z,82.22
2023-04-25T22:56:42.462Z,83.20
2023-04-25T23:02:46.230Z,83.48
2023-04-25T23:08:48.714Z,84.86
2023-04-25T23:14:52.690Z,84.80
2023-04-25T23:20:54.577Z,84.48
2023-04-25T23:26:56.793Z,85.61
2023-04-25T23:32:58.779Z,86.64
2023-04-25T23:39:02.123Z,88.03
2023-04-25T23:45:06.784Z,89.93
2023-04-25T23:51:08.710Z,89.84
2023-04-25T23:57:12.187Z,89.29
